createdAt,value
2022-12-19T00:00:06.753Z,76.91
2022-12-19T00:03:34.141Z,76.82
2022-12-19T00:06:43.492Z,76.83
2022-12-19T00:09:46.887Z,76.91
2022-12-19T00:12:49.654Z,76.96
2022-12-19T00:15:52.900Z,76.85
2022-12-19T00:18:57.794Z,76.75
2022-12-19T00:22:00.838Z,76.70
2022-12-19T00:25:03.842Z,76.84
2022-12-19T00:28:07.356Z,76.91
2022-12-19T00:31:15.909Z,76.84
2022-12-19T00:34:18.761Z,76.83
2022-12-19T00:37:21.502Z,76.86
2022-12-19T00:40:24.303Z,76.83
2022-12-19T00:43:28.177Z,76.89
2022-12-19T00:46:32.737Z,76.91
2022-12-19T00:49:35.573Z,76.94
2022-12-19T00:52:39.800Z,76.96
2022-12-19T00:55:42.588Z,76.72
2022-12-19T00:58:47.343Z,76.65
2022-12-19T01:01:50.498Z,76.69
2022-12-19T01:04:53.403Z,76.69
2022-12-19T01:07:56.180Z,76.71
2022-12-19T01:10:59.763Z,76.67
2022-12-19T01:14:02.583Z,76.69
2022-12-19T01:17:07.378Z,76.58
2022-12-19T01:20:11.369Z,76.65
2022-12-19T01:23:16.374Z,76.66
2022-12-19T01:26:19.416Z,76.71
2022-12-19T01:29:22.231Z,76.59
2022-12-19T01:32:25.107Z,76.65
2022-12-19T01:35:28.655Z,76.57
2022-12-19T01:38:31.448Z,76.57
2022-12-19T01:41:35.242Z,76.62
2022-12-19T01:44:39.627Z,76.42
2022-12-19T01:47:53.705Z,76.54
2022-12-19T01:51:03.081Z,76.43
2022-12-19T01:54:10.635Z,76.38
2022-12-19T01:57:16.242Z,76.29
2022-12-19T02:00:19.127Z,76.41
2022-12-19T02:03:29.280Z,76.41
2022-12-19T02:06:35.123Z,76.54
2022-12-19T02:09:38.564Z,76.37
2022-12-19T02:12:45.682Z,76.37
2022-12-19T02:16:16.548Z,76.27
2022-12-19T02:19:40.111Z,76.37
2022-12-19T02:23:11.113Z,76.45
2022-12-19T02:26:37.452Z,76.41
2022-12-19T02:30:35.357Z,76.35
2022-12-19T02:33:56.230Z,76.45
2022-12-19T02:37:12.121Z,76.52
2022-12-19T02:40:29.180Z,76.35
2022-12-19T02:43:38.892Z,76.40
2022-12-19T02:46:44.865Z,76.32
2022-12-19T02:49:48.345Z,76.29
2022-12-19T02:52:51.149Z,76.47
2022-12-19T02:56:16.557Z,76.55
2022-12-19T03:00:09.079Z,76.24
2022-12-19T03:03:48.005Z,76.13
2022-12-19T03:07:09.286Z,76.13
2022-12-19T03:10:29.430Z,76.18
2022-12-19T03:13:36.239Z,76.19
2022-12-19T03:16:39.095Z,76.10
2022-12-19T03:19:42.382Z,76.16
2022-12-19T03:22:45.232Z,76.20
2022-12-19T03:25:53.831Z,76.08
2022-12-19T03:29:19.319Z,76.02
2022-12-19T03:32:24.828Z,75.81
2022-12-19T03:35:31.882Z,75.96
2022-12-19T03:38:38.050Z,76.01
2022-12-19T03:42:03.044Z,75.97
2022-12-19T03:45:07.407Z,75.79
2022-12-19T03:48:19.707Z,75.97
2022-12-19T03:51:59.112Z,75.90
2022-12-19T03:55:19.647Z,75.82
2022-12-19T03:58:33.743Z,75.93
2022-12-19T04:01:38.859Z,76.04
2022-12-19T04:04:46.195Z,76.14
2022-12-19T04:07:55.083Z,76.07
2022-12-19T04:11:05.052Z,76.01
2022-12-19T04:14:25.452Z,75.94
2022-12-19T04:17:54.289Z,76.00
2022-12-19T04:21:11.117Z,75.94
2022-12-19T04:24:24.217Z,75.92
2022-12-19T04:27:31.891Z,75.94
2022-12-19T04:31:25.404Z,75.94
2022-12-19T04:34:28.345Z,75.95
2022-12-19T04:37:32.428Z,75.88
2022-12-19T04:41:30.428Z,75.92
2022-12-19T04:44:33.229Z,75.92
2022-12-19T04:47:36.259Z,76.03
2022-12-19T04:50:39.165Z,75.91
2022-12-19T04:53:42.584Z,75.96
2022-12-19T04:56:45.384Z,75.85
2022-12-19T04:59:48.158Z,75.82
2022-12-19T05:02:51.195Z,75.84
2022-12-19T05:05:54.196Z,75.95
2022-12-19T05:08:56.994Z,75.81
2022-12-19T05:12:00.118Z,75.76
2022-12-19T05:15:04.295Z,75.87
2022-12-19T05:18:07.376Z,75.69
2022-12-19T05:21:11.134Z,75.78
2022-12-19T05:24:13.960Z,75.77
2022-12-19T05:27:16.987Z,75.91
2022-12-19T05:30:19.860Z,75.84
2022-12-19T05:33:22.771Z,75.83
2022-12-19T05:36:32.338Z,75.77
2022-12-19T05:39:35.602Z,75.67
2022-12-19T05:42:38.397Z,75.84
2022-12-19T05:45:41.221Z,75.70
2022-12-19T05:48:45.421Z,75.80
2022-12-19T05:51:48.407Z,75.97
2022-12-19T05:54:51.213Z,75.91
2022-12-19T05:57:54.614Z,75.96
2022-12-19T06:01:06.003Z,75.91
2022-12-19T06:04:08.867Z,75.83
2022-12-19T06:07:13.459Z,76.01
2022-12-19T06:10:18.052Z,75.84
2022-12-19T06:13:24.902Z,75.85
2022-12-19T06:16:28.176Z,75.95
2022-12-19T06:19:31.897Z,75.88
2022-12-19T06:22:35.343Z,75.84
2022-12-19T06:25:38.175Z,75.91
2022-12-19T06:28:41.522Z,76.01
2022-12-19T06:31:44.663Z,75.81
2022-12-19T06:35:03.743Z,75.92
2022-12-19T06:38:07.265Z,75.86
2022-12-19T06:41:29.895Z,75.90
2022-12-19T06:44:33.411Z,75.66
2022-12-19T06:47:36.324Z,75.95
2022-12-19T06:50:39.243Z,75.87
2022-12-19T06:53:42.038Z,75.98
2022-12-19T06:56:45.005Z,75.84
2022-12-19T06:59:47.852Z,75.93
2022-12-19T07:02:52.291Z,75.90
2022-12-19T07:05:55.549Z,75.87
2022-12-19T07:08:58.361Z,75.93
2022-12-19T07:12:02.641Z,75.87
2022-12-19T07:15:05.974Z,75.63
2022-12-19T07:18:09.926Z,75.72
2022-12-19T07:21:12.963Z,75.84
2022-12-19T07:24:16.040Z,75.85
2022-12-19T07:27:18.998Z,75.95
2022-12-19T07:30:22.629Z,75.72
2022-12-19T07:33:25.448Z,75.91
2022-12-19T07:36:28.200Z,75.87
2022-12-19T07:39:30.993Z,75.64
2022-12-19T07:42:34.388Z,75.73
2022-12-19T07:45:38.665Z,75.69
2022-12-19T07:48:41.671Z,75.48
2022-12-19T07:51:44.702Z,75.53
2022-12-19T07:54:47.497Z,75.55
2022-12-19T07:57:50.794Z,75.37
2022-12-19T08:00:55.835Z,75.35
2022-12-19T08:03:58.766Z,75.27
2022-12-19T08:07:05.176Z,75.13
2022-12-19T08:10:08.839Z,75.06
2022-12-19T08:13:11.884Z,74.98
2022-12-19T08:16:15.606Z,74.93
2022-12-19T08:19:20.573Z,75.05
2022-12-19T08:22:26.353Z,74.75
2022-12-19T08:25:29.182Z,74.66
2022-12-19T08:28:37.174Z,74.50
2022-12-19T08:31:40.910Z,74.52
2022-12-19T08:34:43.940Z,74.52
2022-12-19T08:37:46.757Z,74.50
2022-12-19T08:41:05.074Z,74.37
2022-12-19T08:44:11.807Z,74.44
2022-12-19T08:47:21.094Z,74.64
2022-12-19T08:50:24.085Z,74.51
2022-12-19T08:53:54.132Z,74.52
2022-12-19T08:56:56.845Z,74.25
2022-12-19T09:00:00.776Z,74.45
2022-12-19T09:03:05.312Z,74.28
2022-12-19T09:06:18.924Z,74.12
2022-12-19T09:09:22.389Z,74.16
2022-12-19T09:12:25.140Z,74.24
2022-12-19T09:15:27.990Z,74.25
2022-12-19T09:18:32.377Z,74.22
2022-12-19T09:21:35.236Z,73.78
2022-12-19T09:24:38.032Z,73.94
2022-12-19T09:28:09.402Z,73.95
2022-12-19T09:31:13.999Z,73.95
2022-12-19T09:34:16.960Z,73.88
2022-12-19T09:37:19.963Z,73.57
2022-12-19T09:40:23.015Z,74.06
2022-12-19T09:43:41.510Z,73.95
2022-12-19T09:46:50.788Z,73.91
2022-12-19T09:49:54.622Z,73.95
2022-12-19T09:53:02.960Z,73.95
2022-12-19T09:56:14.758Z,73.67
2022-12-19T09:59:25.219Z,73.61
2022-12-19T10:02:44.433Z,73.72
2022-12-19T10:07:00.489Z,73.56
2022-12-19T10:10:45.423Z,73.50
2022-12-19T10:12:54.872Z,73.57
2022-12-19T10:16:07.486Z,73.51
2022-12-19T10:19:18.089Z,73.46
2022-12-19T10:22:39.455Z,73.41
2022-12-19T10:25:59.805Z,73.21
2022-12-19T10:29:08.249Z,73.21
2022-12-19T10:32:40.645Z,73.03
2022-12-19T10:36:02.103Z,72.95
2022-12-19T10:39:20.293Z,73.23
2022-12-19T10:42:59.171Z,72.81
2022-12-19T10:46:22.522Z,72.88
2022-12-19T10:49:27.299Z,73.09
2022-12-19T10:53:07.438Z,73.10
2022-12-19T10:56:22.656Z,72.55
2022-12-19T10:59:25.920Z,72.61
2022-12-19T11:02:47.037Z,72.46
2022-12-19T11:05:57.697Z,72.46
2022-12-19T11:09:18.525Z,72.78
2022-12-19T11:16:46.548Z,72.78
2022-12-19T11:19:18.765Z,72.43
2022-12-19T11:26:27.497Z,72.26
2022-12-19T11:29:40.715Z,72.18
2022-12-19T11:30:46.766Z,72.53
2022-12-19T11:33:47.552Z,72.49
2022-12-19T11:37:05.679Z,72.28
2022-12-19T11:40:44.943Z,72.02
2022-12-19T11:44:27.744Z,71.84
2022-12-19T11:47:41.939Z,72.29
2022-12-19T11:51:12.603Z,71.89
2022-12-19T11:54:35.115Z,71.67
2022-12-19T11:57:42.682Z,71.81
2022-12-19T12:01:18.138Z,71.51
2022-12-19T12:04:58.707Z,71.78
2022-12-19T12:09:31.134Z,71.08
2022-12-19T12:15:56.889Z,71.54
2022-12-19T12:23:22.015Z,71.23
2022-12-19T12:31:28.278Z,71.58
2022-12-19T12:31:41.052Z,71.76
2022-12-19T12:31:56.044Z,71.59
2022-12-19T12:32:00.573Z,71.11
2022-12-19T12:35:51.513Z,71.22
2022-12-19T12:41:08.288Z,71.48
2022-12-19T12:44:12.348Z,71.04
2022-12-19T12:47:24.470Z,71.06
2022-12-19T12:50:28.483Z,71.01
2022-12-19T12:53:35.755Z,71.30
2022-12-19T12:56:40.316Z,71.33
2022-12-19T12:59:46.860Z,71.25
2022-12-19T13:02:54.801Z,71.10
2022-12-19T13:06:21.111Z,70.86
2022-12-19T13:09:28.309Z,71.21
2022-12-19T13:12:59.893Z,71.15
2022-12-19T13:16:41.283Z,70.95
2022-12-19T13:19:58.319Z,70.94
2022-12-19T13:23:01.127Z,71.19
2022-12-19T13:26:04.857Z,71.38
2022-12-19T13:29:29.341Z,71.22
2022-12-19T13:32:53.688Z,71.14
2022-12-19T13:39:43.564Z,71.38
2022-12-19T13:40:01.456Z,71.19
2022-12-19T13:43:18.540Z,71.15
2022-12-19T13:46:42.684Z,71.15
2022-12-19T13:49:45.850Z,71.09
2022-12-19T13:52:50.222Z,70.98
2022-12-19T13:56:20.221Z,71.19
2022-12-19T13:59:26.943Z,71.13
2022-12-19T14:02:45.390Z,71.04
2022-12-19T14:06:16.910Z,71.26
2022-12-19T14:11:28.032Z,71.55
2022-12-19T14:13:57.635Z,71.64
2022-12-19T14:16:39.722Z,72.19
2022-12-19T14:19:53.329Z,72.16
2022-12-19T14:23:15.604Z,72.28
2022-12-19T14:28:24.526Z,72.45
2022-12-19T14:30:27.655Z,72.58
2022-12-19T14:33:53.418Z,72.87
2022-12-19T14:36:53.546Z,72.72
2022-12-19T14:40:05.593Z,72.88
2022-12-19T14:43:58.576Z,72.75
2022-12-19T14:54:05.064Z,73.81
2022-12-19T14:54:11.218Z,73.63
2022-12-19T14:56:08.210Z,73.54
2022-12-19T14:58:53.613Z,73.81
2022-12-19T15:01:24.374Z,74.03
2022-12-19T15:04:52.704Z,74.22
2022-12-19T15:07:59.240Z,73.98
2022-12-19T15:11:44.620Z,74.43
2022-12-19T15:14:59.289Z,74.77
2022-12-19T15:18:04.510Z,75.00
2022-12-19T15:21:12.721Z,75.43
2022-12-19T15:24:15.680Z,75.39
2022-12-19T15:27:21.576Z,75.78
2022-12-19T15:30:25.310Z,75.94
2022-12-19T15:33:28.225Z,76.04
2022-12-19T15:36:31.172Z,76.17
2022-12-19T15:39:34.585Z,76.26
2022-12-19T15:42:37.532Z,76.04
2022-12-19T15:45:41.535Z,76.12
2022-12-19T15:48:50.153Z,76.37
2022-12-19T15:51:53.522Z,76.53
2022-12-19T15:54:57.651Z,76.48
2022-12-19T15:58:05.439Z,76.73
2022-12-19T16:01:08.665Z,77.13
2022-12-19T16:04:13.777Z,77.21
2022-12-19T16:07:19.579Z,77.36
2022-12-19T16:10:22.598Z,77.42
2022-12-19T16:13:29.215Z,77.35
2022-12-19T16:16:32.374Z,77.55
2022-12-19T16:19:35.236Z,77.54
2022-12-19T16:22:39.493Z,78.03
2022-12-19T16:25:53.513Z,78.42
2022-12-19T16:28:57.387Z,78.66
2022-12-19T16:32:01.950Z,78.94
2022-12-19T16:35:23.945Z,78.86
2022-12-19T16:38:38.185Z,78.99
2022-12-19T16:41:43.629Z,78.84
2022-12-19T16:44:49.378Z,78.79
2022-12-19T16:47:55.740Z,79.09
2022-12-19T16:50:59.816Z,79.37
2022-12-19T16:55:08.227Z,79.12
2022-12-19T16:58:22.945Z,79.33
2022-12-19T17:01:25.984Z,79.19
2022-12-19T17:04:29.757Z,79.26
2022-12-19T17:07:32.747Z,79.22
2022-12-19T17:10:35.589Z,79.51
2022-12-19T17:13:39.936Z,79.38
2022-12-19T17:16:43.409Z,79.71
2022-12-19T17:19:46.481Z,79.87
2022-12-19T17:22:50.003Z,79.99
2022-12-19T17:25:54.853Z,79.77
2022-12-19T17:28:57.654Z,79.80
2022-12-19T17:32:00.801Z,80.01
2022-12-19T17:35:04.047Z,80.27
2022-12-19T17:38:06.893Z,80.29
2022-12-19T17:41:15.353Z,80.29
2022-12-19T17:44:18.943Z,80.47
2022-12-19T17:47:24.660Z,80.49
2022-12-19T17:50:30.128Z,80.26
2022-12-19T17:53:32.970Z,80.41
2022-12-19T17:56:36.051Z,80.92
2022-12-19T17:59:38.848Z,80.78
2022-12-19T18:02:42.143Z,80.52
2022-12-19T18:05:45.303Z,80.75
2022-12-19T18:08:48.308Z,80.46
2022-12-19T18:11:52.960Z,80.60
2022-12-19T18:14:55.767Z,80.65
2022-12-19T18:17:58.776Z,80.59
2022-12-19T18:21:02.561Z,80.53
2022-12-19T18:24:10.896Z,80.62
2022-12-19T18:27:13.760Z,80.83
2022-12-19T18:30:21.147Z,80.98
2022-12-19T18:33:24.369Z,80.59
2022-12-19T18:36:30.283Z,80.78
2022-12-19T18:39:34.296Z,80.93
2022-12-19T18:42:37.131Z,80.98
2022-12-19T18:45:42.684Z,81.35
2022-12-19T18:48:46.150Z,81.29
2022-12-19T18:51:50.509Z,81.43
2022-12-19T18:54:53.694Z,81.38
2022-12-19T18:57:56.793Z,81.11
2022-12-19T19:01:01.719Z,81.30
2022-12-19T19:04:05.043Z,81.33
2022-12-19T19:07:10.142Z,81.04
2022-12-19T19:10:16.367Z,81.16
2022-12-19T19:13:20.761Z,81.10
2022-12-19T19:16:27.278Z,81.23
2022-12-19T19:19:30.282Z,81.24
2022-12-19T19:22:33.129Z,80.90
2022-12-19T19:25:36.699Z,81.07
2022-12-19T19:28:39.702Z,81.35
2022-12-19T19:31:47.276Z,81.49
2022-12-19T19:34:50.180Z,81.49
2022-12-19T19:37:57.830Z,81.56
2022-12-19T19:41:00.701Z,81.57
2022-12-19T19:44:03.580Z,81.56
2022-12-19T19:47:06.502Z,81.78
2022-12-19T19:50:12.282Z,81.73
2022-12-19T19:53:16.792Z,81.83
2022-12-19T19:56:21.946Z,81.64
2022-12-19T19:59:24.805Z,81.46
2022-12-19T20:02:27.842Z,81.53
2022-12-19T20:05:31.034Z,81.64
2022-12-19T20:08:39.693Z,81.73
2022-12-19T20:11:43.626Z,81.55
2022-12-19T20:14:48.240Z,81.59
2022-12-19T20:17:53.060Z,81.77
2022-12-19T20:20:56.274Z,81.87
2022-12-19T20:23:59.336Z,81.78
2022-12-19T20:27:02.196Z,81.48
2022-12-19T20:30:06.970Z,81.68
2022-12-19T20:33:10.055Z,81.56
2022-12-19T20:36:13.735Z,81.66
2022-12-19T20:39:22.116Z,81.51
2022-12-19T20:42:25.009Z,81.71
2022-12-19T20:45:27.935Z,81.55
2022-12-19T20:48:31.661Z,81.47
2022-12-19T20:51:39.039Z,81.43
2022-12-19T20:54:41.983Z,81.39
2022-12-19T20:57:44.785Z,81.41
2022-12-19T21:00:48.024Z,81.57
2022-12-19T21:03:51.942Z,81.40
2022-12-19T21:06:54.947Z,81.61
2022-12-19T21:09:58.345Z,81.45
2022-12-19T21:13:01.114Z,81.63
2022-12-19T21:16:09.097Z,81.69
2022-12-19T21:19:12.042Z,81.90
2022-12-19T21:22:15.031Z,81.69
2022-12-19T21:25:17.883Z,81.44
2022-12-19T21:28:23.881Z,81.67
2022-12-19T21:31:29.263Z,81.73
2022-12-19T21:34:36.205Z,81.46
2022-12-19T21:37:43.495Z,81.72
2022-12-19T21:40:46.845Z,81.66
2022-12-19T21:43:53.595Z,81.77
2022-12-19T21:46:56.478Z,81.82
2022-12-19T21:49:59.427Z,81.68
2022-12-19T21:53:02.275Z,81.76
2022-12-19T21:56:12.707Z,81.72
2022-12-19T21:59:17.302Z,81.67
2022-12-19T22:02:20.572Z,81.76
2022-12-19T22:05:23.529Z,81.45
2022-12-19T22:08:26.377Z,81.49
2022-12-19T22:11:30.319Z,81.41
2022-12-19T22:14:33.317Z,81.52
2022-12-19T22:17:36.171Z,81.31
2022-12-19T22:20:44.012Z,81.42
2022-12-19T22:23:47.164Z,81.35
2022-12-19T22:26:49.966Z,81.28
2022-12-19T22:29:52.803Z,81.15
2022-12-19T22:32:55.632Z,81.15
2022-12-19T22:36:05.487Z,80.92
2022-12-19T22:39:11.666Z,81.03
2022-12-19T22:42:14.467Z,80.86
2022-12-19T22:45:21.991Z,80.84
2022-12-19T22:48:24.812Z,80.80
2022-12-19T22:51:29.153Z,80.73
2022-12-19T22:54:31.957Z,80.47
2022-12-19T22:57:34.934Z,80.44
2022-12-19T23:00:43.016Z,80.38
2022-12-19T23:03:48.344Z,80.23
2022-12-19T23:06:51.438Z,80.01
2022-12-19T23:09:54.250Z,79.79
2022-12-19T23:12:57.237Z,79.82
2022-12-19T23:16:00.163Z,79.72
2022-12-19T23:19:05.395Z,79.42
2022-12-19T23:22:08.244Z,79.33
2022-12-19T23:25:11.319Z,79.21
2022-12-19T23:28:14.044Z,79.24
2022-12-19T23:31:17.051Z,78.98
2022-12-19T23:34:20.284Z,78.89
2022-12-19T23:37:23.085Z,78.60
2022-12-19T23:40:25.871Z,78.41
2022-12-19T23:43:29.881Z,78.29
2022-12-19T23:46:32.867Z,78.11
2022-12-19T23:49:35.695Z,77.93
2022-12-19T23:52:38.556Z,77.85
2022-12-19T23:55:41.562Z,77.68
2022-12-19T23:58:48.522Z,77.73
